Terminal Aerodrome Forecast
Issued by NWS New Orleans/Baton Rouge, LA

Home | Current Version | Previous Version | Text Only | Print | Product List | Glossary On
Versions: 1 2 3 4 5 6 7 8 9 10 11 12 13 14 15 16 17 18 19 20 21 22 23 24 25 26 27 28 29 30 31 32 33 34
000
FTUS44 KLIX 261723
TAFNEW
TAF
KNEW 261723Z 2618/2718 33005KT P6SM SCT030
     FM262000 25005KT P6SM SCT140
     FM270600 16004KT P6SM BKN090
     FM270900 12008KT P6SM BKN015
     FM271100 08011KT P6SM BKN015
     FM271500 07013KT P6SM BKN050=

USA.gov is the U.S. government's official web portal to all federal, state and local government web resources and services.